createdAt,value
2018-07-27T00:02:10.326Z,3.00
2018-07-27T00:04:39.044Z,3.20
2018-07-27T00:07:07.372Z,3.87
2018-07-27T00:09:35.689Z,3.80
2018-07-27T00:12:04.060Z,3.17
2018-07-27T00:14:32.445Z,3.00
2018-07-27T00:17:00.760Z,2.60
2018-07-27T00:19:29.104Z,2.58
2018-07-27T00:21:57.400Z,2.80
2018-07-27T00:24:25.735Z,2.83
2018-07-27T00:26:54.074Z,3.00
2018-07-27T00:29:22.415Z,2.77
2018-07-27T00:31:50.865Z,3.10
2018-07-27T00:34:19.206Z,2.90
2018-07-27T00:36:47.582Z,2.80
2018-07-27T00:39:15.918Z,2.90
2018-07-27T00:41:44.250Z,3.00
2018-07-27T00:44:12.689Z,3.20
2018-07-27T00:46:41.020Z,2.70
2018-07-27T00:49:09.367Z,3.10
2018-07-27T00:51:37.800Z,2.80
2018-07-27T00:54:06.158Z,2.70
2018-07-27T00:56:34.695Z,3.10
2018-07-27T00:59:03.032Z,3.10
2018-07-27T01:01:31.417Z,3.40
2018-07-27T01:03:59.744Z,2.87
2018-07-27T01:06:28.099Z,3.47
2018-07-27T01:08:56.384Z,2.85
2018-07-27T01:11:24.725Z,2.77
2018-07-27T01:13:53.101Z,2.90
2018-07-27T01:16:21.442Z,3.10
2018-07-27T01:18:49.800Z,3.50
2018-07-27T01:21:19.055Z,3.00
2018-07-27T01:23:47.337Z,3.00
2018-07-27T01:26:15.671Z,3.30
2018-07-27T01:28:44.038Z,3.30
2018-07-27T01:31:12.351Z,3.83
2018-07-27T01:33:40.749Z,5.20
2018-07-27T01:36:09.074Z,3.47
2018-07-27T01:38:37.411Z,3.17
2018-07-27T01:41:05.746Z,3.40
2018-07-27T01:43:34.308Z,3.20
2018-07-27T01:46:02.606Z,3.40
2018-07-27T01:48:31.473Z,3.37
2018-07-27T01:50:59.827Z,3.60
2018-07-27T01:53:28.155Z,3.70
2018-07-27T01:55:56.533Z,3.30
2018-07-27T01:58:24.895Z,3.20
2018-07-27T02:00:53.192Z,3.27
2018-07-27T02:03:21.553Z,3.40
2018-07-27T02:05:49.965Z,3.70
2018-07-27T02:08:18.290Z,3.47
2018-07-27T02:10:46.610Z,3.50
2018-07-27T02:13:14.980Z,3.35
2018-07-27T02:15:43.427Z,3.40
2018-07-27T02:18:11.750Z,3.30
2018-07-27T02:20:40.132Z,3.60
2018-07-27T02:23:08.448Z,4.20
2018-07-27T02:25:36.804Z,3.90
2018-07-27T02:28:05.117Z,3.60
2018-07-27T02:30:33.696Z,4.42
2018-07-27T02:33:02.047Z,3.60
2018-07-27T02:35:30.394Z,4.35
2018-07-27T02:37:58.779Z,3.70
2018-07-27T02:40:27.116Z,3.50
2018-07-27T02:42:55.440Z,4.00
2018-07-27T02:45:23.869Z,4.08
2018-07-27T02:47:52.193Z,3.67
2018-07-27T02:50:21.027Z,3.92
2018-07-27T02:52:49.518Z,3.77
2018-07-27T02:55:18.063Z,3.62
2018-07-27T02:57:46.423Z,4.07
2018-07-27T03:00:14.860Z,3.50
2018-07-27T03:02:43.180Z,3.90
2018-07-27T03:05:11.474Z,4.30
2018-07-27T03:07:39.789Z,4.00
2018-07-27T03:10:08.153Z,4.00
2018-07-27T03:12:36.443Z,4.00
2018-07-27T03:15:05.418Z,3.90
2018-07-27T03:17:33.744Z,4.30
2018-07-27T03:20:02.076Z,4.65
2018-07-27T03:22:30.413Z,4.00
2018-07-27T03:24:58.761Z,4.10
2018-07-27T03:27:27.121Z,4.20
2018-07-27T03:29:55.427Z,4.20
2018-07-27T03:32:23.846Z,4.90
2018-07-27T03:34:52.174Z,4.50
2018-07-27T03:37:20.511Z,4.58
2018-07-27T03:39:48.840Z,4.37
2018-07-27T03:42:17.181Z,4.90
2018-07-27T03:44:45.501Z,4.62
2018-07-27T03:47:13.853Z,4.45
2018-07-27T03:49:42.122Z,4.40
2018-07-27T03:52:10.498Z,4.70
2018-07-27T03:54:38.802Z,4.20
2018-07-27T03:57:07.134Z,4.90
2018-07-27T03:59:35.562Z,4.42
2018-07-27T04:02:03.938Z,6.47
2018-07-27T04:04:32.254Z,6.60
2018-07-27T04:07:01.456Z,5.60
2018-07-27T04:09:29.775Z,5.78
2018-07-27T04:11:58.096Z,6.05
2018-07-27T04:14:26.428Z,6.40
2018-07-27T04:16:54.773Z,6.17
2018-07-27T04:19:23.116Z,6.30
2018-07-27T04:21:51.443Z,6.40
2018-07-27T04:24:19.789Z,6.30
2018-07-27T04:26:48.123Z,6.87
2018-07-27T04:29:16.536Z,6.12
2018-07-27T04:31:44.868Z,5.92
2018-07-27T04:34:13.415Z,5.78
2018-07-27T04:36:41.749Z,6.58
2018-07-27T04:39:11.017Z,10.70
2018-07-27T04:41:39.334Z,7.65
2018-07-27T04:44:07.896Z,6.60
2018-07-27T04:46:36.341Z,6.40
2018-07-27T04:49:04.715Z,6.05
2018-07-27T04:51:33.176Z,16.00
2018-07-27T04:54:01.701Z,7.00
2018-07-27T04:56:30.026Z,6.50
2018-07-27T04:58:58.401Z,7.47
2018-07-27T05:01:26.943Z,6.30
2018-07-27T05:03:55.299Z,6.00
2018-07-27T05:06:23.670Z,6.90
2018-07-27T05:08:57.235Z,6.30
2018-07-27T05:11:25.585Z,6.25
2018-07-27T05:13:53.865Z,6.50
2018-07-27T05:16:22.188Z,6.43
2018-07-27T05:18:50.574Z,6.25
2018-07-27T05:21:18.887Z,6.30
2018-07-27T05:23:47.236Z,6.10
2018-07-27T05:26:15.626Z,6.00
2018-07-27T05:28:43.972Z,6.58
2018-07-27T05:31:12.348Z,6.90
2018-07-27T05:33:40.664Z,6.30
2018-07-27T05:36:09.103Z,6.72
2018-07-27T05:38:37.433Z,6.55
2018-07-27T05:41:06.090Z,7.33
2018-07-27T05:43:34.574Z,6.60
2018-07-27T05:46:02.931Z,6.13
2018-07-27T05:48:31.421Z,6.80
2018-07-27T05:50:59.760Z,7.05
2018-07-27T05:53:28.113Z,7.00
2018-07-27T05:55:56.469Z,7.17
2018-07-27T05:58:24.934Z,6.60
2018-07-27T06:00:53.301Z,6.60
2018-07-27T06:03:21.647Z,7.17
2018-07-27T06:05:50.167Z,6.90
2018-07-27T06:08:18.508Z,7.10
2018-07-27T06:10:46.891Z,8.00
2018-07-27T06:13:15.313Z,7.30
2018-07-27T06:15:43.621Z,7.12
2018-07-27T06:18:12.028Z,7.27
2018-07-27T06:20:40.274Z,6.87
2018-07-27T06:23:08.624Z,7.30
2018-07-27T06:25:37.064Z,7.50
2018-07-27T06:28:05.519Z,7.40
2018-07-27T06:30:33.905Z,7.30
2018-07-27T06:33:02.313Z,7.33
2018-07-27T06:35:30.682Z,7.70
2018-07-27T06:37:59.069Z,7.80
2018-07-27T06:40:27.428Z,7.70
2018-07-27T06:42:55.836Z,7.83
2018-07-27T06:45:24.327Z,7.97
2018-07-27T06:47:52.725Z,8.08
2018-07-27T06:50:21.207Z,7.62
2018-07-27T06:52:49.559Z,7.70
2018-07-27T06:55:17.894Z,7.58
2018-07-27T06:57:46.233Z,7.17
2018-07-27T07:00:14.576Z,8.08
2018-07-27T07:02:42.907Z,7.50
2018-07-27T07:05:11.292Z,7.35
2018-07-27T07:07:39.627Z,7.70
2018-07-27T07:10:08.069Z,7.40
2018-07-27T07:12:36.462Z,7.80
2018-07-27T07:15:06.328Z,7.20
2018-07-27T07:17:34.655Z,7.67
2018-07-27T07:20:03.017Z,7.30
2018-07-27T07:22:31.323Z,7.10
2018-07-27T07:24:59.910Z,7.80
2018-07-27T07:27:28.205Z,7.50
2018-07-27T07:29:56.505Z,7.60
2018-07-27T07:32:24.869Z,6.90
2018-07-27T07:34:53.219Z,7.25
2018-07-27T07:37:21.650Z,7.20
2018-07-27T07:39:50.439Z,7.60
2018-07-27T07:42:18.823Z,7.45
2018-07-27T07:44:47.180Z,7.08
2018-07-27T07:47:15.509Z,6.95
2018-07-27T07:49:43.813Z,7.87
2018-07-27T07:52:12.178Z,7.08
2018-07-27T07:54:40.537Z,7.53
2018-07-27T07:57:08.854Z,6.67
2018-07-27T07:59:37.156Z,6.90
2018-07-27T08:02:05.534Z,7.00
2018-07-27T08:04:33.903Z,7.40
2018-07-27T08:07:02.242Z,6.90
2018-07-27T08:09:30.629Z,6.67
2018-07-27T08:11:59.147Z,6.50
2018-07-27T08:14:27.428Z,6.70
2018-07-27T08:16:55.733Z,6.33
2018-07-27T08:19:24.159Z,6.55
2018-07-27T08:21:52.470Z,6.40
2018-07-27T08:24:20.791Z,6.42
2018-07-27T08:26:52.148Z,6.37
2018-07-27T08:29:23.660Z,5.70
2018-07-27T08:31:52.718Z,5.95
2018-07-27T08:34:21.317Z,7.77
2018-07-27T08:36:50.120Z,5.73
2018-07-27T08:39:20.655Z,6.00
2018-07-27T08:41:49.315Z,5.47
2018-07-27T08:44:20.917Z,6.10
2018-07-27T08:46:49.280Z,5.70
2018-07-27T08:49:17.602Z,5.60
2018-07-27T08:51:45.964Z,6.20
2018-07-27T08:54:14.321Z,5.70
2018-07-27T08:56:42.674Z,7.50
2018-07-27T08:59:10.988Z,5.75
2018-07-27T09:01:39.377Z,5.55
2018-07-27T09:04:07.722Z,5.70
2018-07-27T09:06:36.072Z,5.20
2018-07-27T09:09:07.334Z,5.90
2018-07-27T09:11:35.703Z,6.22
2018-07-27T09:14:04.002Z,5.55
2018-07-27T09:16:32.465Z,5.77
2018-07-27T09:19:00.788Z,5.72
2018-07-27T09:21:29.156Z,5.30
2018-07-27T09:23:57.509Z,5.60
2018-07-27T09:26:25.856Z,5.50
2018-07-27T09:28:54.194Z,6.33
2018-07-27T09:31:22.520Z,4.90
2018-07-27T09:33:50.834Z,4.90
2018-07-27T09:36:19.183Z,5.22
2018-07-27T09:38:47.487Z,5.00
2018-07-27T09:41:15.834Z,5.07
2018-07-27T09:43:44.165Z,4.90
2018-07-27T09:46:12.506Z,4.33
2018-07-27T09:48:40.864Z,4.45
2018-07-27T09:51:09.159Z,4.70
2018-07-27T09:53:37.445Z,4.65
2018-07-27T09:56:05.819Z,4.10
2018-07-27T09:58:34.163Z,4.03
2018-07-27T10:01:12.632Z,4.27
2018-07-27T10:03:40.973Z,4.42
2018-07-27T10:06:09.297Z,4.65
2018-07-27T10:08:37.812Z,4.40
2018-07-27T10:11:06.104Z,4.22
2018-07-27T10:13:34.438Z,4.67
2018-07-27T10:16:02.751Z,4.10
2018-07-27T10:18:31.143Z,4.35
2018-07-27T10:20:59.406Z,3.70
2018-07-27T10:23:27.747Z,3.70
2018-07-27T10:25:56.084Z,4.37
2018-07-27T10:28:24.416Z,4.15
2018-07-27T10:30:52.743Z,4.10
2018-07-27T10:33:21.042Z,3.90
2018-07-27T10:35:49.361Z,4.33
2018-07-27T10:38:17.954Z,4.10
2018-07-27T10:40:46.304Z,4.45
2018-07-27T10:43:14.618Z,4.75
2018-07-27T10:45:42.921Z,4.20
2018-07-27T10:48:11.254Z,7.10
2018-07-27T10:50:39.570Z,5.92
2018-07-27T10:53:08.009Z,3.72
2018-07-27T10:55:36.379Z,4.22
2018-07-27T10:58:04.720Z,4.40
2018-07-27T11:00:33.046Z,4.17
2018-07-27T11:03:01.421Z,4.50
2018-07-27T11:05:29.760Z,4.20
2018-07-27T11:07:58.077Z,4.08
2018-07-27T11:10:26.396Z,4.60
2018-07-27T11:12:54.826Z,3.80
2018-07-27T11:15:23.159Z,4.10
2018-07-27T11:17:51.595Z,4.42
2018-07-27T11:20:19.833Z,4.30
2018-07-27T11:22:48.158Z,4.17
2018-07-27T11:25:16.460Z,3.72
2018-07-27T11:27:44.772Z,3.50
2018-07-27T11:30:13.111Z,4.30
2018-07-27T11:32:41.416Z,4.10
2018-07-27T11:35:09.717Z,3.83
2018-07-27T11:37:38.084Z,3.90
2018-07-27T11:40:07.060Z,3.35
2018-07-27T11:42:35.425Z,3.50
2018-07-27T11:45:03.856Z,3.47
2018-07-27T11:47:32.186Z,3.60
2018-07-27T11:50:00.549Z,3.55
2018-07-27T11:52:29.136Z,3.95
2018-07-27T11:54:58.452Z,3.40
2018-07-27T11:57:26.808Z,2.80
2018-07-27T11:59:55.137Z,3.30
2018-07-27T12:02:23.459Z,3.58
2018-07-27T12:04:51.798Z,2.92
2018-07-27T12:07:20.091Z,3.40
2018-07-27T12:09:48.434Z,3.00
2018-07-27T12:12:16.856Z,3.10
2018-07-27T12:14:45.338Z,3.17
2018-07-27T12:17:13.488Z,3.20
2018-07-27T12:19:41.797Z,4.62
2018-07-27T12:22:10.153Z,3.10
2018-07-27T12:24:38.891Z,3.50
2018-07-27T12:27:07.378Z,8.75
2018-07-27T12:29:35.782Z,20.68
2018-07-27T12:32:04.135Z,3.60
2018-07-27T12:34:32.458Z,3.50
2018-07-27T12:37:00.801Z,3.10
2018-07-27T12:39:29.146Z,3.10
2018-07-27T12:41:57.472Z,3.30
2018-07-27T12:44:25.795Z,3.30
2018-07-27T12:46:54.177Z,2.90
2018-07-27T12:49:22.505Z,2.87
2018-07-27T12:51:50.876Z,3.30
2018-07-27T12:54:19.193Z,3.10
2018-07-27T12:56:47.530Z,3.12
2018-07-27T12:59:15.818Z,3.12
2018-07-27T13:01:44.130Z,3.03
2018-07-27T13:04:12.441Z,2.90
2018-07-27T13:06:40.885Z,5.40
2018-07-27T13:09:10.991Z,4.20
2018-07-27T13:11:39.299Z,3.52
2018-07-27T13:14:07.850Z,3.20
2018-07-27T13:16:36.161Z,3.40
2018-07-27T13:19:04.636Z,3.10
2018-07-27T13:21:33.068Z,3.57
2018-07-27T13:24:02.595Z,4.05
2018-07-27T13:26:31.046Z,3.30
2018-07-27T13:28:59.614Z,3.20
2018-07-27T13:31:50.889Z,3.50
2018-07-27T13:37:05.308Z,3.73
2018-07-27T13:39:34.384Z,2.90
2018-07-27T13:42:03.821Z,3.15
2018-07-27T13:44:33.326Z,3.00
2018-07-27T13:47:02.140Z,3.20
2018-07-27T13:49:30.464Z,3.00
2018-07-27T13:51:59.080Z,3.70
2018-07-27T13:54:28.356Z,3.10
2018-07-27T13:56:56.660Z,3.10
2018-07-27T13:59:24.960Z,3.10
2018-07-27T14:01:53.280Z,3.30
2018-07-27T14:04:21.621Z,3.50
2018-07-27T14:06:51.413Z,3.20
2018-07-27T14:09:19.768Z,3.30
2018-07-27T14:11:48.134Z,3.20
2018-07-27T14:14:16.502Z,3.00
2018-07-27T14:16:44.830Z,3.30
2018-07-27T14:19:14.007Z,3.60
2018-07-27T14:21:42.725Z,3.30
2018-07-27T14:24:10.979Z,3.22
2018-07-27T14:26:39.500Z,3.15
2018-07-27T14:29:08.040Z,3.58
2018-07-27T14:31:36.350Z,4.05
2018-07-27T14:34:04.698Z,3.90
2018-07-27T14:36:33.013Z,5.22
2018-07-27T14:39:01.332Z,3.90
2018-07-27T14:41:29.708Z,4.03
2018-07-27T14:43:58.006Z,3.60
2018-07-27T14:46:26.421Z,3.60
2018-07-27T14:48:54.715Z,3.90
2018-07-27T14:51:23.038Z,3.25
2018-07-27T14:53:51.368Z,3.72
2018-07-27T14:56:19.724Z,4.60
2018-07-27T14:58:48.073Z,4.00
2018-07-27T15:01:16.411Z,4.40
2018-07-27T15:03:44.720Z,4.10
2018-07-27T15:06:13.018Z,4.03
2018-07-27T15:08:41.373Z,4.90
2018-07-27T15:11:09.851Z,5.37
2018-07-27T15:13:38.179Z,4.33
2018-07-27T15:16:06.594Z,4.10
2018-07-27T15:18:34.915Z,4.10
2018-07-27T15:21:03.240Z,4.12
2018-07-27T15:23:31.560Z,4.30
2018-07-27T15:25:59.872Z,3.80
2018-07-27T15:28:28.196Z,4.10
2018-07-27T15:30:56.622Z,5.00
2018-07-27T15:33:24.944Z,4.53
2018-07-27T15:35:53.534Z,4.30
2018-07-27T15:38:21.840Z,4.30
2018-07-27T15:40:50.135Z,4.37
2018-07-27T15:43:18.786Z,4.65
2018-07-27T15:45:47.127Z,4.13
2018-07-27T15:48:15.488Z,4.40
2018-07-27T15:50:43.843Z,11.95
2018-07-27T15:53:12.156Z,4.67
2018-07-27T15:55:40.628Z,4.50
2018-07-27T15:58:08.972Z,4.47
2018-07-27T16:00:37.304Z,5.80
2018-07-27T16:03:05.696Z,9.77
2018-07-27T16:05:34.117Z,13.68
2018-07-27T16:08:02.459Z,32.50
2018-07-27T16:10:31.116Z,7.40
2018-07-27T16:12:59.880Z,18.25
2018-07-27T16:15:28.193Z,5.80
2018-07-27T16:17:56.880Z,6.87
2018-07-27T16:20:25.282Z,21.37
2018-07-27T16:22:53.621Z,19.10
2018-07-27T16:25:22.237Z,18.45
2018-07-27T16:27:50.574Z,16.65
2018-07-27T16:30:18.932Z,8.85
2018-07-27T16:32:47.249Z,6.78
2018-07-27T16:35:15.574Z,9.30
2018-07-27T16:37:43.921Z,5.20
2018-07-27T16:40:12.253Z,5.67
2018-07-27T16:42:40.585Z,6.10
2018-07-27T16:45:08.925Z,5.05
2018-07-27T16:47:37.266Z,5.00
2018-07-27T16:50:06.254Z,6.47
2018-07-27T16:52:34.567Z,5.20
2018-07-27T16:55:02.907Z,5.25
2018-07-27T16:57:31.248Z,5.30
2018-07-27T16:59:59.715Z,5.50
2018-07-27T17:02:28.033Z,4.90
2018-07-27T17:04:56.365Z,6.40
2018-07-27T17:07:24.662Z,5.30
2018-07-27T17:09:53.122Z,5.20
2018-07-27T17:12:21.434Z,5.30
2018-07-27T17:14:49.770Z,5.50
2018-07-27T17:17:18.078Z,5.70
2018-07-27T17:19:46.489Z,5.42
2018-07-27T17:22:14.796Z,5.20
2018-07-27T17:24:43.100Z,5.33
2018-07-27T17:27:11.424Z,5.37
2018-07-27T17:29:39.748Z,5.50
2018-07-27T17:32:08.269Z,5.10
2018-07-27T17:34:36.654Z,5.87
2018-07-27T17:37:05.100Z,5.73
2018-07-27T17:39:33.412Z,6.20
2018-07-27T17:42:01.756Z,5.45
2018-07-27T17:44:30.088Z,6.20
2018-07-27T17:46:58.402Z,5.40
2018-07-27T17:49:26.720Z,5.60
2018-07-27T17:51:55.058Z,5.62
2018-07-27T17:54:23.443Z,5.87
2018-07-27T17:56:51.726Z,5.77
2018-07-27T17:59:20.011Z,5.22
2018-07-27T18:01:48.424Z,5.22
2018-07-27T18:04:16.733Z,5.60
2018-07-27T18:06:45.162Z,5.95
2018-07-27T18:09:13.575Z,5.75
2018-07-27T18:11:41.913Z,5.80
2018-07-27T18:14:10.576Z,5.78
2018-07-27T18:16:39.032Z,6.10
2018-07-27T18:19:07.982Z,5.90
2018-07-27T18:21:36.857Z,5.67
2018-07-27T18:24:05.250Z,6.37
2018-07-27T18:26:33.775Z,6.00
2018-07-27T18:29:02.115Z,5.50
2018-07-27T18:31:30.458Z,5.78
2018-07-27T18:33:58.753Z,6.33
2018-07-27T18:36:27.227Z,5.90
2018-07-27T18:38:55.618Z,5.97
2018-07-27T18:41:23.994Z,6.30
2018-07-27T18:43:52.547Z,6.78
2018-07-27T18:46:21.178Z,6.20
2018-07-27T18:48:49.961Z,5.78
2018-07-27T18:51:18.274Z,5.80
2018-07-27T18:53:46.643Z,6.45
2018-07-27T18:56:15.159Z,6.40
2018-07-27T18:58:43.480Z,6.40
2018-07-27T19:01:11.856Z,6.25
2018-07-27T19:03:40.207Z,5.83
2018-07-27T19:06:08.582Z,6.15
2018-07-27T19:08:37.030Z,5.85
2018-07-27T19:11:05.845Z,5.97
2018-07-27T19:13:34.231Z,6.20
2018-07-27T19:16:02.590Z,6.40
2018-07-27T19:18:30.927Z,6.03
2018-07-27T19:20:59.297Z,5.80
2018-07-27T19:23:27.709Z,6.72
2018-07-27T19:25:55.957Z,6.10
2018-07-27T19:28:24.386Z,7.00
2018-07-27T19:30:52.759Z,6.20
2018-07-27T19:33:21.072Z,6.60
2018-07-27T19:35:49.431Z,6.17
2018-07-27T19:38:17.743Z,6.50
2018-07-27T19:40:46.080Z,6.08
2018-07-27T19:43:14.425Z,5.80
2018-07-27T19:45:43.137Z,6.50
2018-07-27T19:48:11.485Z,6.17
2018-07-27T19:50:39.802Z,6.17
2018-07-27T19:53:08.147Z,5.50
2018-07-27T19:55:36.472Z,5.78
2018-07-27T19:58:04.800Z,6.10
2018-07-27T20:00:33.154Z,6.00
2018-07-27T20:03:01.473Z,5.80
2018-07-27T20:05:29.824Z,6.00
2018-07-27T20:07:58.130Z,5.80
2018-07-27T20:10:26.518Z,6.22
2018-07-27T20:12:54.866Z,5.97
2018-07-27T20:15:23.191Z,5.75
2018-07-27T20:17:51.507Z,6.35
2018-07-27T20:20:19.822Z,5.90
2018-07-27T20:22:48.183Z,6.30
2018-07-27T20:25:16.488Z,5.65
2018-07-27T20:27:44.808Z,5.83
2018-07-27T20:30:13.153Z,6.10
2018-07-27T20:32:41.574Z,6.10
2018-07-27T20:35:09.931Z,6.10
2018-07-27T20:37:38.284Z,6.10
2018-07-27T20:40:07.427Z,5.80
2018-07-27T20:42:36.016Z,5.50
2018-07-27T20:45:05.354Z,6.00
2018-07-27T20:47:33.705Z,5.90
2018-07-27T20:50:02.049Z,5.70
2018-07-27T20:52:30.387Z,5.40
2018-07-27T20:54:58.746Z,5.58
2018-07-27T20:57:27.084Z,5.70
2018-07-27T20:59:55.587Z,5.60
2018-07-27T21:02:23.949Z,5.60
2018-07-27T21:04:52.374Z,5.43
2018-07-27T21:07:20.743Z,5.60
2018-07-27T21:09:49.070Z,6.80
2018-07-27T21:12:17.480Z,6.65
2018-07-27T21:14:45.855Z,10.60
2018-07-27T21:17:14.336Z,22.00
2018-07-27T21:19:42.680Z,6.80
2018-07-27T21:22:11.059Z,8.13
2018-07-27T21:24:39.398Z,7.47
2018-07-27T21:27:07.720Z,6.00
2018-07-27T21:29:36.101Z,6.60
2018-07-27T21:32:04.451Z,6.15
2018-07-27T21:34:32.868Z,5.80
2018-07-27T21:37:01.190Z,5.85
2018-07-27T21:39:29.523Z,5.72
2018-07-27T21:41:57.904Z,7.63
2018-07-27T21:44:26.359Z,8.15
2018-07-27T21:46:54.747Z,6.47
2018-07-27T21:49:23.068Z,6.50
2018-07-27T21:51:51.428Z,6.50
2018-07-27T21:54:19.787Z,6.65
2018-07-27T21:56:48.156Z,6.28
2018-07-27T21:59:16.520Z,6.00
2018-07-27T22:01:44.963Z,5.80
2018-07-27T22:04:13.332Z,5.90
2018-07-27T22:06:41.706Z,6.40
2018-07-27T22:09:10.709Z,6.20
2018-07-27T22:11:39.085Z,6.40
2018-07-27T22:14:07.389Z,6.60
2018-07-27T22:16:35.833Z,5.60
2018-07-27T22:19:04.242Z,6.10
2018-07-27T22:21:32.805Z,5.97
2018-07-27T22:24:01.273Z,6.28
2018-07-27T22:26:29.587Z,5.92
2018-07-27T22:28:57.927Z,5.73
2018-07-27T22:31:26.301Z,6.05
2018-07-27T22:33:54.612Z,5.80
2018-07-27T22:36:22.951Z,5.87
2018-07-27T22:38:51.474Z,6.00
2018-07-27T22:41:19.807Z,5.78
2018-07-27T22:43:48.313Z,6.00
2018-07-27T22:46:16.796Z,5.90
2018-07-27T22:48:45.280Z,5.70
2018-07-27T22:51:13.644Z,5.85
2018-07-27T22:53:41.956Z,6.17
2018-07-27T22:56:10.302Z,5.85
2018-07-27T22:58:38.778Z,5.80
2018-07-27T23:01:07.100Z,6.00
2018-07-27T23:03:35.436Z,6.20
2018-07-27T23:06:03.778Z,5.62
2018-07-27T23:08:32.145Z,6.20
2018-07-27T23:11:00.506Z,5.93
2018-07-27T23:13:29.274Z,6.00
2018-07-27T23:15:58.186Z,7.37
2018-07-27T23:18:26.932Z,6.20
2018-07-27T23:20:55.259Z,6.20
2018-07-27T23:23:23.600Z,6.00
2018-07-27T23:25:52.052Z,6.10
2018-07-27T23:28:20.430Z,6.17
2018-07-27T23:30:53.445Z,6.20
2018-07-27T23:33:21.776Z,6.30
2018-07-27T23:35:50.481Z,6.22
2018-07-27T23:38:18.815Z,6.90
2018-07-27T23:40:47.390Z,6.05
2018-07-27T23:43:15.675Z,6.25
2018-07-27T23:45:44.001Z,5.80
2018-07-27T23:48:12.355Z,6.58
2018-07-27T23:50:41.078Z,6.83
2018-07-27T23:53:09.455Z,6.83
2018-07-27T23:55:37.791Z,7.28
2018-07-27T23:58:06.084Z,6.00
